Time;durP1;ratioP1;P1;durP2;ratioP2;P2;SDS_P1;SDS_P2;PMS_P1;PMS_P2;Temp;Humidity;BMP_temperature;BMP_pressure;BME280_temperature;BME280_humidity;BME280_pressure;Samples;Min_cycle;Max_cycle;Signal;HPM_P1;HPM_P2
2022/07/10 00:00:30;;;;;;;125.88;113.47;;;14.20;96.00;;;;;;5036135;28;20534;-71
2022/07/10 00:02:58;;;;;;;124.82;112.32;;;14.20;96.00;;;;;;5068106;28;20129;-71
2022/07/10 00:05:26;;;;;;;123.07;110.78;;;14.10;96.10;;;;;;5067610;28;20050;-71
2022/07/10 00:07:53;;;;;;;124.20;112.00;;;14.10;96.00;;;;;;5067401;28;20056;-71
2022/07/10 00:10:21;;;;;;;123.40;111.03;;;14.10;96.10;;;;;;5067943;28;20923;-71
2022/07/10 00:12:51;;;;;;;123.80;111.10;;;14.00;96.10;;;;;;5068265;28;20217;-71
2022/07/10 00:15:19;;;;;;;123.43;111.13;;;14.00;96.10;;;;;;5067745;28;20137;-71
2022/07/10 00:17:47;;;;;;;122.65;110.28;;;14.00;96.20;;;;;;5035439;28;20058;-71
2022/07/10 00:20:15;;;;;;;124.63;112.63;;;14.00;96.30;;;;;;5034042;28;20499;-71
2022/07/10 00:22:43;;;;;;;122.45;110.25;;;14.00;96.30;;;;;;5034163;28;20064;-71
2022/07/10 00:25:14;;;;;;;121.95;109.70;;;13.90;96.40;;;;;;5034569;28;20125;-71
2022/07/10 00:27:41;;;;;;;122.97;110.88;;;13.90;96.50;;;;;;5067278;28;20085;-71
2022/07/10 00:30:12;;;;;;;121.53;109.25;;;13.90;96.60;;;;;;5034366;28;20053;-71
2022/07/10 00:32:39;;;;;;;123.50;111.05;;;13.90;96.50;;;;;;5035664;28;20046;-71
2022/07/10 00:35:06;;;;;;;122.45;110.43;;;13.90;96.50;;;;;;5067874;28;20054;-71
2022/07/10 00:37:33;;;;;;;123.20;110.97;;;13.90;96.50;;;;;;5034076;28;20053;-71
2022/07/10 00:40:01;;;;;;;123.13;110.57;;;13.90;96.60;;;;;;5034425;28;20053;-71
2022/07/10 00:42:28;;;;;;;124.28;111.65;;;13.90;96.50;;;;;;5035489;28;20085;-71
2022/07/10 00:44:55;;;;;;;122.38;110.20;;;13.90;96.50;;;;;;5035505;28;20135;-71
2022/07/10 00:47:23;;;;;;;125.35;112.75;;;14.00;96.50;;;;;;5034434;28;20056;-72
2022/07/10 00:49:50;;;;;;;122.75;110.20;;;14.00;96.50;;;;;;5033614;28;20108;-73
2022/07/10 00:52:18;;;;;;;123.95;111.60;;;14.00;96.50;;;;;;5034937;28;20058;-71
2022/07/10 00:54:46;;;;;;;123.22;110.93;;;14.00;96.60;;;;;;5035248;28;20511;-72
2022/07/10 00:57:15;;;;;;;126.38;113.88;;;14.00;96.50;;;;;;5066375;28;20053;-71
2022/07/10 00:59:42;;;;;;;124.22;111.43;;;14.00;96.60;;;;;;5066217;28;20073;-72
2022/07/10 01:02:10;;;;;;;122.53;110.32;;;14.00;96.50;;;;;;5034846;28;20058;-73
2022/07/10 01:04:38;;;;;;;125.15;112.63;;;14.00;96.60;;;;;;5034551;28;20050;-72
2022/07/10 01:07:05;;;;;;;125.65;113.30;;;14.00;96.60;;;;;;5033726;28;20050;-72
2022/07/10 01:09:33;;;;;;;123.15;110.55;;;13.90;96.70;;;;;;5032989;28;20153;-71
2022/07/10 01:12:01;;;;;;;123.03;110.65;;;14.00;96.60;;;;;;5033370;28;20506;-71
2022/07/10 01:14:29;;;;;;;123.53;111.10;;;13.90;96.70;;;;;;5034921;28;20054;-71
2022/07/10 01:16:57;;;;;;;124.93;111.72;;;13.90;96.80;;;;;;5066871;28;20057;-71
2022/07/10 01:19:24;;;;;;;124.63;112.18;;;13.90;96.80;;;;;;5066635;28;20116;-71
2022/07/10 01:21:52;;;;;;;125.05;112.45;;;13.90;96.70;;;;;;5033105;28;20052;-71
2022/07/10 01:24:19;;;;;;;127.07;114.05;;;13.90;96.80;;;;;;5066642;28;20045;-71
2022/07/10 01:26:46;;;;;;;125.78;112.90;;;13.90;96.70;;;;;;5066553;28;20494;-71
2022/07/10 01:29:13;;;;;;;125.47;112.80;;;13.90;96.70;;;;;;5066069;28;20113;-71
2022/07/10 01:31:41;;;;;;;126.05;112.95;;;13.90;96.80;;;;;;5066481;28;20078;-71
2022/07/10 01:34:09;;;;;;;126.07;113.15;;;13.90;96.90;;;;;;5066708;28;20054;-71
2022/07/10 01:36:37;;;;;;;124.43;111.45;;;13.80;96.90;;;;;;5067736;28;20101;-71
2022/07/10 01:39:30;;;;;;;123.40;110.95;;;13.80;96.90;;;;;;5035983;28;20500;-71
2022/07/10 01:41:57;;;;;;;125.47;112.72;;;13.80;97.00;;;;;;5034065;28;20056;-71
2022/07/10 01:44:24;;;;;;;126.88;113.90;;;13.80;97.00;;;;;;5065330;28;20152;-71
2022/07/10 01:46:51;;;;;;;125.10;112.35;;;13.80;97.00;;;;;;5034158;28;20046;-71
2022/07/10 01:49:18;;;;;;;123.85;111.30;;;13.80;96.90;;;;;;5066319;28;20058;-71
2022/07/10 01:51:45;;;;;;;124.45;112.03;;;13.80;96.90;;;;;;5066519;28;20142;-71
2022/07/10 01:54:12;;;;;;;125.80;112.72;;;13.80;97.00;;;;;;5066268;28;20058;-71
2022/07/10 01:56:40;;;;;;;125.25;112.43;;;13.80;96.90;;;;;;5066836;28;20050;-71
2022/07/10 01:59:08;;;;;;;124.47;112.25;;;13.80;97.00;;;;;;5066245;28;20137;-71
2022/07/10 02:01:35;;;;;;;123.43;110.82;;;13.80;97.00;;;;;;5066340;28;20058;-71
2022/07/10 02:06:46;;;;;;;125.10;112.32;;;13.80;97.00;;;;;;5034368;28;20060;-71
2022/07/10 02:09:14;;;;;;;125.40;112.45;;;13.80;97.00;;;;;;5033706;28;20056;-71
2022/07/10 02:11:43;;;;;;;124.40;111.72;;;13.80;97.10;;;;;;5066324;28;20157;-71
2022/07/10 02:14:10;;;;;;;125.55;112.45;;;13.70;97.00;;;;;;5034148;28;20062;-71
2022/07/10 02:16:37;;;;;;;124.47;111.65;;;13.70;97.00;;;;;;5033639;28;20144;-71
2022/07/10 02:19:05;;;;;;;124.43;112.05;;;13.70;97.00;;;;;;5033515;28;20050;-71
2022/07/10 02:21:31;;;;;;;124.78;112.10;;;13.70;96.90;;;;;;5065723;28;20046;-71
2022/07/10 02:23:58;;;;;;;127.63;114.43;;;13.70;96.90;;;;;;5065940;28;20049;-71
2022/07/10 02:26:25;;;;;;;126.43;113.45;;;13.70;97.00;;;;;;5066211;28;20145;-71
2022/07/10 02:28:53;;;;;;;125.15;112.55;;;13.70;97.00;;;;;;5032143;28;20066;-71
2022/07/10 02:31:20;;;;;;;127.97;114.75;;;13.60;97.00;;;;;;5065897;28;20483;-71
2022/07/10 02:33:47;;;;;;;126.55;113.55;;;13.60;97.00;;;;;;5033511;28;20053;-71
2022/07/10 02:36:14;;;;;;;126.47;113.30;;;13.60;97.00;;;;;;5032249;28;20397;-71
2022/07/10 02:38:41;;;;;;;126.03;113.07;;;13.50;97.00;;;;;;5031859;28;20074;-71
2022/07/10 02:41:08;;;;;;;124.45;111.53;;;13.50;97.00;;;;;;5065752;28;20405;-71
2022/07/10 02:43:35;;;;;;;125.50;112.60;;;13.50;97.00;;;;;;5033855;28;20054;-71
2022/07/10 02:46:03;;;;;;;125.93;112.90;;;13.50;97.10;;;;;;5033348;28;20116;-71
2022/07/10 02:48:30;;;;;;;125.20;112.45;;;13.50;97.10;;;;;;5032704;28;20053;-71
2022/07/10 02:50:57;;;;;;;125.68;112.75;;;13.50;97.10;;;;;;5065797;28;20057;-71
2022/07/10 02:53:24;;;;;;;124.30;111.70;;;13.40;97.10;;;;;;5065636;28;20050;-71
2022/07/10 02:55:50;;;;;;;127.25;114.05;;;13.40;97.10;;;;;;5064588;28;20570;-71
2022/07/10 02:58:19;;;;;;;128.07;114.63;;;13.40;97.20;;;;;;5032489;28;20113;-71
2022/07/10 03:00:46;;;;;;;127.05;113.70;;;13.40;97.00;;;;;;5031897;28;20104;-71
2022/07/10 03:03:17;;;;;;;123.72;110.97;;;13.40;97.10;;;;;;5031925;28;20125;-71
2022/07/10 03:05:44;;;;;;;123.25;110.63;;;13.40;97.10;;;;;;5032902;28;20064;-71
2022/07/10 03:08:11;;;;;;;124.15;111.43;;;13.40;97.00;;;;;;5064852;28;20065;-71
2022/07/10 03:10:38;;;;;;;127.55;114.13;;;13.40;97.00;;;;;;5064930;28;20520;-71
2022/07/10 03:13:05;;;;;;;125.15;112.13;;;13.30;96.90;;;;;;5064972;28;20504;-71
2022/07/10 03:15:32;;;;;;;123.32;110.70;;;13.30;97.00;;;;;;5065119;28;20057;-71
2022/07/10 03:17:58;;;;;;;123.80;110.75;;;13.20;97.00;;;;;;5064670;28;20874;-71
2022/07/10 03:20:27;;;;;;;125.55;112.57;;;13.30;97.00;;;;;;5064764;28;20508;-71
2022/07/10 03:22:54;;;;;;;125.35;112.25;;;13.20;97.00;;;;;;5064837;28;20046;-71
2022/07/10 03:25:21;;;;;;;125.72;112.90;;;13.20;97.10;;;;;;5031291;28;20471;-71
2022/07/10 03:27:47;;;;;;;125.50;112.28;;;13.20;97.10;;;;;;5032072;28;20531;-71
2022/07/10 03:30:14;;;;;;;126.18;112.82;;;13.20;97.20;;;;;;5064893;28;20508;-71
2022/07/10 03:32:41;;;;;;;124.63;111.43;;;13.20;97.10;;;;;;5064918;28;20050;-71
2022/07/10 03:35:08;;;;;;;125.13;112.18;;;13.20;97.10;;;;;;5032663;28;20058;-71
2022/07/10 03:37:37;;;;;;;126.97;113.70;;;13.20;97.20;;;;;;5031557;28;20585;-71
2022/07/10 03:40:04;;;;;;;124.85;111.93;;;13.20;97.20;;;;;;5064521;28;20052;-71
2022/07/10 03:42:31;;;;;;;127.57;113.97;;;13.30;97.20;;;;;;5064597;28;20052;-71
2022/07/10 03:44:58;;;;;;;124.38;111.63;;;13.30;97.20;;;;;;5031455;28;20052;-71
2022/07/10 03:47:25;;;;;;;125.18;112.05;;;13.30;97.10;;;;;;5064774;28;20053;-71
2022/07/10 03:49:52;;;;;;;124.38;111.38;;;13.30;97.10;;;;;;5065405;28;20050;-71
2022/07/10 03:52:18;;;;;;;127.07;113.82;;;13.30;97.10;;;;;;5032391;28;20046;-71
2022/07/10 03:54:47;;;;;;;129.07;115.47;;;13.40;97.10;;;;;;5064366;28;20109;-71
2022/07/10 03:59:58;;;;;;;127.25;113.82;;;13.40;97.10;;;;;;5031246;28;20057;-71
2022/07/10 04:02:25;;;;;;;125.00;111.63;;;13.40;97.20;;;;;;5065166;28;20530;-71
2022/07/10 04:04:52;;;;;;;126.53;113.03;;;13.40;97.10;;;;;;5031682;28;20050;-71
2022/07/10 04:07:19;;;;;;;129.25;115.38;;;13.40;97.20;;;;;;5065075;28;20049;-71
2022/07/10 04:09:47;;;;;;;127.85;114.40;;;13.40;97.20;;;;;;5034814;28;20053;-71
2022/07/10 04:12:14;;;;;;;126.90;112.22;;;13.50;97.10;;;;;;5035966;28;20092;-71
2022/07/10 04:14:41;;;;;;;126.55;113.60;;;13.50;97.20;;;;;;5036051;28;20058;-71
2022/07/10 04:17:08;;;;;;;129.73;116.20;;;13.50;97.20;;;;;;5035350;28;20524;-71
2022/07/10 04:19:35;;;;;;;126.32;113.13;;;13.50;97.30;;;;;;5035833;28;20526;-71
2022/07/10 04:22:02;;;;;;;127.00;113.68;;;13.50;97.20;;;;;;5068318;28;20052;-71
2022/07/10 04:24:29;;;;;;;127.43;114.15;;;13.60;97.20;;;;;;5034889;28;20137;-71
2022/07/10 04:26:57;;;;;;;127.25;114.03;;;13.60;97.30;;;;;;5067788;28;20048;-71
2022/07/10 04:29:24;;;;;;;127.97;114.53;;;13.60;97.20;;;;;;5035532;28;20064;-71
2022/07/10 04:31:51;;;;;;;129.13;115.43;;;13.60;97.20;;;;;;5068003;28;20053;-71
2022/07/10 04:34:18;;;;;;;129.23;115.70;;;13.60;97.30;;;;;;5067783;28;20054;-71
2022/07/10 04:36:45;;;;;;;126.93;113.75;;;13.60;97.30;;;;;;5067811;28;20053;-71
2022/07/10 04:39:12;;;;;;;127.75;114.53;;;13.60;97.30;;;;;;5067654;28;20054;-71
2022/07/10 04:41:39;;;;;;;126.40;113.47;;;13.70;97.40;;;;;;5034098;28;20049;-71
2022/07/10 04:44:07;;;;;;;125.53;112.65;;;13.70;97.50;;;;;;5034131;28;20057;-71
2022/07/10 04:46:34;;;;;;;126.63;113.28;;;13.70;97.50;;;;;;5067138;28;20069;-71
2022/07/10 04:49:01;;;;;;;126.72;113.50;;;13.70;97.40;;;;;;5034637;28;20050;-71
2022/07/10 04:51:28;;;;;;;127.13;113.90;;;13.70;97.50;;;;;;5067728;28;20054;-71
2022/07/10 04:53:55;;;;;;;129.65;116.22;;;13.70;97.50;;;;;;5035433;28;20141;-71
2022/07/10 04:56:21;;;;;;;128.00;114.82;;;13.80;97.50;;;;;;5067092;28;20049;-71
2022/07/10 04:58:48;;;;;;;128.45;115.18;;;13.80;97.70;;;;;;5034890;28;20555;-71
2022/07/10 05:01:17;;;;;;;126.68;113.57;;;13.80;97.80;;;;;;5034583;28;20065;-71
2022/07/10 05:03:44;;;;;;;127.10;114.20;;;13.90;97.90;;;;;;5067478;28;20077;-71
2022/07/10 05:06:10;;;;;;;128.88;115.53;;;13.90;98.10;;;;;;5066674;28;20066;-71
2022/07/10 05:08:37;;;;;;;128.10;114.28;;;14.00;98.20;;;;;;5066376;28;20058;-71
2022/07/10 05:11:04;;;;;;;126.85;113.85;;;14.00;98.20;;;;;;5033141;28;20137;-71
2022/07/10 05:13:31;;;;;;;130.48;116.82;;;14.00;98.20;;;;;;5033790;28;20056;-71
2022/07/10 05:15:58;;;;;;;130.77;116.97;;;14.10;98.30;;;;;;5033979;28;20050;-71
2022/07/10 05:18:26;;;;;;;130.02;116.35;;;14.10;98.30;;;;;;5049019;28;20042;-71
2022/07/10 05:20:53;;;;;;;132.57;118.70;;;14.10;98.40;;;;;;5066301;28;20554;-71
2022/07/10 05:23:20;;;;;;;132.32;118.22;;;14.20;98.50;;;;;;5049918;28;20557;-71
2022/07/10 05:25:47;;;;;;;133.60;119.70;;;14.20;98.40;;;;;;5066404;28;20049;-71
2022/07/10 05:28:14;;;;;;;132.90;119.03;;;14.20;98.50;;;;;;5032727;28;20088;-71
2022/07/10 05:30:41;;;;;;;128.75;115.32;;;14.30;98.70;;;;;;5066655;28;20049;-71
2022/07/10 05:33:08;;;;;;;127.50;114.53;;;14.30;98.70;;;;;;5034440;28;20088;-71
2022/07/10 05:35:37;;;;;;;126.63;113.50;;;14.30;98.80;;;;;;5034666;28;20056;-71
2022/07/10 05:38:03;;;;;;;129.70;116.05;;;14.40;98.80;;;;;;5065764;28;20077;-72
2022/07/10 05:40:30;;;;;;;127.68;114.55;;;14.40;98.90;;;;;;5032831;28;20345;-71
2022/07/10 05:42:57;;;;;;;128.63;115.22;;;14.50;98.90;;;;;;5066300;28;20052;-71
2022/07/10 05:45:24;;;;;;;128.98;115.68;;;14.50;99.00;;;;;;5033934;28;20046;-71
2022/07/10 05:47:51;;;;;;;129.15;115.72;;;14.50;98.90;;;;;;5032092;28;20504;-72
2022/07/10 05:50:18;;;;;;;128.48;114.95;;;14.50;99.10;;;;;;5066993;28;20056;-74
2022/07/10 05:52:47;;;;;;;130.38;117.07;;;14.60;99.10;;;;;;5065315;28;20134;-72
2022/07/10 05:55:14;;;;;;;131.30;117.90;;;14.60;99.10;;;;;;5047532;28;20108;-72
2022/07/10 05:57:41;;;;;;;132.27;118.88;;;14.60;99.20;;;;;;5032178;28;20077;-73
2022/07/10 06:00:09;;;;;;;129.30;116.03;;;14.60;99.10;;;;;;5033589;28;20050;-70
2022/07/10 06:02:39;;;;;;;130.05;116.53;;;14.70;99.10;;;;;;5066321;28;20188;-73
2022/07/10 06:05:07;;;;;;;131.27;117.78;;;14.70;99.10;;;;;;5032304;28;20070;-71
2022/07/10 06:07:34;;;;;;;131.05;117.63;;;14.80;99.10;;;;;;5035391;28;20125;-71
2022/07/10 06:10:03;;;;;;;128.30;115.32;;;14.80;99.20;;;;;;5034187;28;20108;-72
2022/07/10 06:12:31;;;;;;;129.20;116.00;;;14.80;99.20;;;;;;5033757;28;20489;-72
2022/07/10 06:14:58;;;;;;;131.27;117.57;;;14.90;99.30;;;;;;5031773;28;20038;-72
2022/07/10 06:17:24;;;;;;;130.73;117.28;;;14.90;99.20;;;;;;5028261;28;20141;-71
2022/07/10 06:19:51;;;;;;;132.00;118.30;;;14.90;99.30;;;;;;5038269;28;20061;-71
2022/07/10 06:22:33;;;;;;;131.55;117.47;;;15.00;99.30;;;;;;5031621;28;20133;-70
2022/07/10 06:25:01;;;;;;;129.38;115.93;;;15.00;99.30;;;;;;5038334;28;20050;-71
2022/07/10 06:27:29;;;;;;;128.65;115.40;;;15.00;99.20;;;;;;5031717;28;20080;-70
2022/07/10 06:29:57;;;;;;;128.48;115.10;;;15.10;99.20;;;;;;5031857;28;20050;-72
2022/07/10 06:32:24;;;;;;;128.68;115.60;;;15.10;99.20;;;;;;5033323;28;20129;-71
2022/07/10 06:34:51;;;;;;;129.95;116.78;;;15.10;99.10;;;;;;5033450;28;20054;-73
2022/07/10 06:37:18;;;;;;;129.55;116.15;;;15.10;99.10;;;;;;5038006;28;20042;-74
2022/07/10 06:39:47;;;;;;;128.27;115.30;;;15.10;99.10;;;;;;5032234;28;20060;-71
2022/07/10 06:42:14;;;;;;;128.98;115.85;;;15.20;99.00;;;;;;5030079;28;20042;-72
2022/07/10 06:44:44;;;;;;;130.35;117.22;;;15.20;99.00;;;;;;5033597;28;20053;-73
2022/07/10 06:49:57;;;;;;;126.70;113.90;;;15.30;99.00;;;;;;5033195;28;20046;-73
2022/07/10 06:52:25;;;;;;;128.65;115.55;;;15.20;99.00;;;;;;5031677;28;20054;-72
2022/07/10 06:54:52;;;;;;;128.95;115.85;;;15.20;99.00;;;;;;5032636;28;20049;-72
2022/07/10 06:57:20;;;;;;;131.82;118.35;;;15.30;99.00;;;;;;5030328;28;20678;-73
2022/07/10 06:59:48;;;;;;;128.30;115.40;;;15.30;99.00;;;;;;5036971;28;20045;-73
2022/07/10 07:02:15;;;;;;;132.68;119.30;;;15.30;99.00;;;;;;5040321;28;20137;-72
2022/07/10 07:04:42;;;;;;;129.27;116.20;;;15.30;99.00;;;;;;5029159;28;20050;-71
2022/07/10 07:07:09;;;;;;;132.20;119.10;;;15.30;99.00;;;;;;5034828;28;20063;-73
2022/07/10 07:09:36;;;;;;;130.32;117.35;;;15.30;99.00;;;;;;5034811;28;20141;-71
2022/07/10 07:12:03;;;;;;;129.10;115.75;;;15.40;99.00;;;;;;5031679;28;20640;-71
2022/07/10 07:14:30;;;;;;;129.05;115.93;;;15.40;99.00;;;;;;5032275;28;20150;-75
2022/07/10 07:17:00;;;;;;;128.80;115.75;;;15.40;99.20;;;;;;5032772;28;20129;-75
2022/07/10 07:19:31;;;;;;;129.00;116.00;;;15.40;99.00;;;;;;5032752;28;20046;-74
2022/07/10 07:24:43;;;;;;;133.02;119.30;;;15.40;99.10;;;;;;5032090;28;20042;-76
2022/07/10 07:27:11;;;;;;;131.70;118.60;;;15.40;99.00;;;;;;5031036;28;20050;-75
2022/07/10 07:29:38;;;;;;;129.45;116.60;;;15.40;99.00;;;;;;5031841;28;20053;-75
2022/07/10 07:32:07;;;;;;;130.77;117.78;;;15.40;99.20;;;;;;5031577;28;20052;-75
2022/07/10 07:34:34;;;;;;;131.60;118.72;;;15.40;99.20;;;;;;5031446;28;20125;-76
2022/07/10 07:37:00;;;;;;;134.20;121.10;;;15.40;99.20;;;;;;5031220;28;20064;-75
2022/07/10 07:39:27;;;;;;;130.57;117.95;;;15.40;99.10;;;;;;5031505;28;20046;-74
2022/07/10 07:41:54;;;;;;;132.13;119.15;;;15.40;99.20;;;;;;5032579;28;20750;-74
2022/07/10 07:44:21;;;;;;;137.68;123.68;;;15.40;99.20;;;;;;5036362;28;20081;-74
2022/07/10 07:46:48;;;;;;;138.23;124.65;;;15.50;99.30;;;;;;5035065;28;20069;-75
2022/07/10 07:49:16;;;;;;;131.18;118.47;;;15.50;99.40;;;;;;5036101;28;20054;-75
2022/07/10 07:51:43;;;;;;;131.40;118.68;;;15.50;99.50;;;;;;5036165;28;20508;-75
2022/07/10 07:54:10;;;;;;;131.38;118.53;;;15.50;99.50;;;;;;5034262;28;20050;-74
2022/07/10 07:56:37;;;;;;;130.50;117.82;;;15.60;99.50;;;;;;5034532;28;20054;-74
2022/07/10 07:59:04;;;;;;;131.90;119.10;;;15.60;99.60;;;;;;5034402;28;20042;-75
2022/07/10 08:01:30;;;;;;;131.30;118.60;;;15.60;99.60;;;;;;5034845;28;20073;-74
2022/07/10 08:03:57;;;;;;;132.85;119.95;;;15.70;99.70;;;;;;5035052;28;20125;-74
2022/07/10 08:06:26;;;;;;;131.05;118.25;;;15.70;99.60;;;;;;5033649;28;20091;-74
2022/07/10 08:08:52;;;;;;;131.32;118.53;;;15.70;99.60;;;;;;5034120;28;20050;-74
2022/07/10 08:11:19;;;;;;;131.35;118.47;;;15.80;99.70;;;;;;5034399;28;20056;-75
2022/07/10 08:13:46;;;;;;;135.15;121.85;;;15.80;99.80;;;;;;5035648;28;20050;-75
2022/07/10 08:16:13;;;;;;;134.43;121.10;;;15.80;99.70;;;;;;5034464;28;20049;-76
2022/07/10 08:18:40;;;;;;;133.88;121.18;;;15.90;99.60;;;;;;5035392;28;20265;-76
2022/07/10 08:21:07;;;;;;;134.90;122.00;;;15.80;99.50;;;;;;5034165;28;20054;-77
2022/07/10 08:23:36;;;;;;;135.23;121.95;;;15.90;99.50;;;;;;5034279;28;20046;-75
2022/07/10 08:26:03;;;;;;;134.65;121.47;;;15.90;99.40;;;;;;5034195;28;20058;-76
2022/07/10 08:28:29;;;;;;;133.88;120.78;;;15.90;99.40;;;;;;5017596;28;20046;-74
2022/07/10 08:30:56;;;;;;;131.25;118.53;;;16.00;99.40;;;;;;5034896;28;20085;-74
2022/07/10 08:33:23;;;;;;;131.15;118.47;;;16.00;99.40;;;;;;5035641;28;20046;-77
2022/07/10 08:35:50;;;;;;;133.50;120.60;;;15.90;99.40;;;;;;5034810;28;20057;-81
2022/07/10 08:38:17;;;;;;;131.30;118.72;;;16.00;99.30;;;;;;5034043;28;20050;-77
2022/07/10 08:40:46;;;;;;;133.45;120.22;;;15.90;99.20;;;;;;5034198;28;20050;-77
2022/07/10 08:43:13;;;;;;;133.88;120.78;;;15.90;99.20;;;;;;5034147;28;20666;-77
2022/07/10 08:45:41;;;;;;;131.63;118.78;;;15.90;99.30;;;;;;5035095;28;20468;-77
2022/07/10 08:48:10;;;;;;;133.73;120.53;;;15.90;99.30;;;;;;5032796;28;20142;-77
2022/07/10 08:50:40;;;;;;;135.90;122.40;;;15.80;99.30;;;;;;5016405;28;20172;-77
2022/07/10 08:53:10;;;;;;;138.15;124.15;;;15.80;99.30;;;;;;5034450;28;20050;-85
2022/07/10 08:55:38;;;;;;;129.93;117.43;;;15.80;99.40;;;;;;5034060;28;20144;-85
2022/07/10 08:58:08;;;;;;;131.45;118.63;;;15.80;99.50;;;;;;5034049;28;20053;-83
2022/07/10 09:04:29;;;;;;;131.15;118.15;;;15.80;99.60;;;;;;5030885;28;20096;-82
2022/07/10 09:06:56;;;;;;;133.85;120.38;;;15.70;99.60;;;;;;5046669;28;20113;-85
2022/07/10 09:09:24;;;;;;;131.60;118.82;;;15.70;99.60;;;;;;4998252;28;20066;-82
2022/07/10 09:11:57;;;;;;;131.95;119.05;;;15.70;99.70;;;;;;5032066;28;20479;-84
2022/07/10 09:14:27;;;;;;;137.95;124.38;;;15.80;99.70;;;;;;5032077;28;20041;-80
2022/07/10 09:16:55;;;;;;;137.30;123.72;;;15.80;99.80;;;;;;5033791;28;20053;-80
2022/07/10 09:19:23;;;;;;;142.20;128.35;;;15.80;99.90;;;;;;5053506;28;20046;-84
2022/07/10 09:21:52;;;;;;;140.13;126.00;;;15.80;99.90;;;;;;5043057;28;20057;-84
2022/07/10 09:24:20;;;;;;;131.65;118.63;;;15.80;99.90;;;;;;5033927;28;20528;-83
2022/07/10 09:27:03;;;;;;;134.38;121.28;;;15.90;99.90;;;;;;5017428;28;20551;-78
2022/07/10 09:29:31;;;;;;;134.82;121.10;;;15.90;99.90;;;;;;5033423;28;20064;-81
2022/07/10 09:31:59;;;;;;;133.57;120.18;;;16.00;99.90;;;;;;5035254;28;20054;-80
2022/07/10 09:34:37;;;;;;;132.80;119.50;;;16.00;99.90;;;;;;5033136;28;20066;-78
2022/07/10 09:37:22;;;;;;;133.85;120.68;;;16.00;99.90;;;;;;5033432;28;20159;-77
2022/07/10 09:40:00;;;;;;;133.25;120.35;;;16.10;99.90;;;;;;5051874;28;20057;-85
2022/07/10 09:42:32;;;;;;;130.88;118.00;;;16.10;99.90;;;;;;5053332;28;20053;-77
2022/07/10 09:45:17;;;;;;;132.80;119.60;;;16.10;99.70;;;;;;5054368;28;20542;-74
2022/07/10 09:47:46;;;;;;;131.80;118.80;;;16.20;99.80;;;;;;5038681;28;20050;-77
2022/07/10 09:50:24;;;;;;;132.93;120.03;;;16.10;99.80;;;;;;5065097;28;20060;-74
2022/07/10 09:52:54;;;;;;;134.73;121.35;;;16.10;99.70;;;;;;5025221;28;20492;-74
2022/07/10 09:55:22;;;;;;;133.77;120.78;;;16.20;99.80;;;;;;5029594;28;20046;-76
2022/07/10 09:57:56;;;;;;;132.43;119.68;;;16.20;99.80;;;;;;5012516;28;20097;-73
2022/07/10 10:00:28;;;;;;;130.60;118.10;;;16.20;99.90;;;;;;5021488;28;20049;-73
2022/07/10 10:03:00;;;;;;;131.48;118.78;;;16.30;99.90;;;;;;5039328;28;20265;-75
2022/07/10 10:05:36;;;;;;;132.75;119.75;;;16.30;99.80;;;;;;5022997;28;20123;-74
2022/07/10 10:08:10;;;;;;;132.10;119.57;;;16.30;99.70;;;;;;5015307;28;20108;-77
2022/07/10 10:10:41;;;;;;;129.85;117.32;;;16.30;99.50;;;;;;5036769;28;20096;-79
2022/07/10 10:13:10;;;;;;;128.57;116.18;;;16.30;99.40;;;;;;5034890;28;20161;-81
2022/07/10 10:15:39;;;;;;;131.82;119.13;;;16.20;99.40;;;;;;5032354;28;20805;-81
2022/07/10 10:18:07;;;;;;;130.90;118.45;;;16.20;99.50;;;;;;5063712;28;20133;-78
2022/07/10 10:20:37;;;;;;;133.15;120.25;;;16.20;99.80;;;;;;5040083;28;20061;-73
2022/07/10 10:23:07;;;;;;;133.48;120.85;;;16.20;99.60;;;;;;5032727;28;20052;-77
2022/07/10 10:25:35;;;;;;;132.70;119.90;;;16.30;99.90;;;;;;5033477;28;20516;-78
2022/07/10 10:28:03;;;;;;;134.40;121.40;;;16.20;99.80;;;;;;5031939;28;20105;-76
2022/07/10 10:30:31;;;;;;;134.38;121.28;;;16.30;99.70;;;;;;5033465;28;20049;-75
2022/07/10 10:32:59;;;;;;;136.20;123.00;;;16.30;99.70;;;;;;5029803;28;20046;-76
2022/07/10 10:35:42;;;;;;;133.90;120.80;;;16.30;99.70;;;;;;5029863;28;20053;-76
2022/07/10 10:38:09;;;;;;;131.27;118.35;;;16.30;99.80;;;;;;5016414;28;20081;-79
2022/07/10 10:40:36;;;;;;;132.57;119.75;;;16.30;99.80;;;;;;5037623;28;20064;-81
2022/07/10 10:43:19;;;;;;;135.13;121.88;;;16.40;99.70;;;;;;5014276;28;20195;-79
2022/07/10 10:45:47;;;;;;;132.77;119.88;;;16.40;99.60;;;;;;5031845;28;20148;-80
2022/07/10 10:48:17;;;;;;;134.43;121.57;;;16.40;99.50;;;;;;5045910;28;20054;-81
2022/07/10 10:50:47;;;;;;;134.50;121.75;;;16.40;99.60;;;;;;5033015;28;20100;-82
2022/07/10 10:53:16;;;;;;;135.05;122.10;;;16.40;99.70;;;;;;5042873;28;20505;-83
2022/07/10 10:56:22;;;;;;;134.75;121.75;;;16.40;99.80;;;;;;5051411;28;20049;-78
2022/07/10 10:58:49;;;;;;;136.32;122.95;;;16.50;99.90;;;;;;5039030;28;20057;-73
2022/07/10 11:01:29;;;;;;;138.05;124.75;;;16.60;99.90;;;;;;5038444;28;20061;-72
2022/07/10 11:04:17;;;;;;;136.95;123.95;;;16.60;99.70;;;;;;5037434;28;20050;-74
2022/07/10 11:06:46;;;;;;;136.43;123.32;;;16.70;99.50;;;;;;5036903;28;20053;-74
2022/07/10 11:09:24;;;;;;;135.85;122.90;;;16.70;99.40;;;;;;5063154;28;20050;-76
2022/07/10 11:12:08;;;;;;;135.10;121.90;;;16.80;99.10;;;;;;5041743;28;20140;-75
2022/07/10 11:14:37;;;;;;;136.63;123.47;;;16.80;99.20;;;;;;5029413;28;20065;-73
2022/07/10 11:17:05;;;;;;;137.13;123.78;;;16.90;99.30;;;;;;5037704;28;20076;-74
2022/07/10 11:19:34;;;;;;;135.15;122.13;;;16.90;99.50;;;;;;5034557;28;20048;-75
2022/07/10 11:22:44;;;;;;;135.15;121.63;;;16.90;99.00;;;;;;5032987;28;20050;-72
2022/07/10 11:25:28;;;;;;;135.85;122.85;;;17.00;98.80;;;;;;5031128;28;20057;-74
2022/07/10 11:28:08;;;;;;;136.88;124.00;;;17.00;98.90;;;;;;5035055;28;20054;-73
2022/07/10 11:30:45;;;;;;;139.55;126.45;;;16.90;98.70;;;;;;5022087;28;20133;-73
2022/07/10 11:33:12;;;;;;;138.07;124.90;;;17.00;99.00;;;;;;5035508;28;20054;-73
2022/07/10 11:35:41;;;;;;;136.15;123.40;;;17.00;99.10;;;;;;5039271;28;20041;-73
2022/07/10 11:38:08;;;;;;;135.15;122.00;;;17.00;99.10;;;;;;5037539;28;20055;-74
2022/07/10 11:40:37;;;;;;;136.00;123.22;;;17.10;99.00;;;;;;5035772;28;20053;-74
2022/07/10 11:43:06;;;;;;;135.13;121.93;;;17.10;98.90;;;;;;5032755;28;20115;-73
2022/07/10 11:45:37;;;;;;;136.60;123.60;;;17.20;98.60;;;;;;5045583;28;20052;-73
2022/07/10 11:48:07;;;;;;;134.95;122.00;;;17.20;98.50;;;;;;5030826;28;20555;-73
2022/07/10 11:50:38;;;;;;;138.05;125.00;;;17.20;98.60;;;;;;5030968;28;20129;-73
2022/07/10 11:53:06;;;;;;;143.32;129.52;;;17.20;98.50;;;;;;5030719;28;20129;-74
2022/07/10 11:55:36;;;;;;;138.60;125.18;;;17.20;98.40;;;;;;5031907;28;20041;-75
2022/07/10 11:58:14;;;;;;;140.13;126.88;;;17.20;98.40;;;;;;5034548;28;20053;-75
2022/07/10 12:00:41;;;;;;;139.48;125.75;;;17.20;98.60;;;;;;5063061;28;20053;-75
2022/07/10 12:03:20;;;;;;;138.02;124.93;;;17.20;98.20;;;;;;5034411;28;20613;-74
2022/07/10 12:05:48;;;;;;;135.73;122.40;;;17.20;98.10;;;;;;5041864;28;20053;-74
2022/07/10 12:08:16;;;;;;;132.75;119.35;;;17.20;98.20;;;;;;5065343;28;20109;-74
2022/07/10 12:10:43;;;;;;;134.00;120.93;;;17.20;98.10;;;;;;5039392;28;21769;-73
2022/07/10 12:13:11;;;;;;;136.98;123.38;;;17.10;98.10;;;;;;5038990;28;20053;-74
2022/07/10 12:15:40;;;;;;;136.15;122.55;;;17.10;98.00;;;;;;5045323;28;20056;-73
2022/07/10 12:18:08;;;;;;;133.02;119.90;;;17.00;98.10;;;;;;5044585;28;20544;-74
2022/07/10 12:20:36;;;;;;;136.57;122.88;;;17.00;98.20;;;;;;5035651;28;20053;-73
2022/07/10 12:23:04;;;;;;;136.00;122.45;;;17.00;98.20;;;;;;5034722;28;20049;-73
2022/07/10 12:25:33;;;;;;;136.52;123.00;;;16.90;98.30;;;;;;5032506;28;20054;-74
2022/07/10 12:28:00;;;;;;;135.05;121.55;;;16.90;98.00;;;;;;5033105;28;20046;-74
2022/07/10 12:30:49;;;;;;;135.27;121.90;;;16.90;98.00;;;;;;5033533;28;20061;-74